createdAt,value
2018-12-12T00:01:29.216Z,3.30
2018-12-12T00:03:57.260Z,1.87
2018-12-12T00:06:25.568Z,1.60
2018-12-12T00:08:53.650Z,2.47
2018-12-12T00:11:21.713Z,1.70
2018-12-12T00:13:49.850Z,1.67
2018-12-12T00:16:17.864Z,2.10
2018-12-12T00:18:45.923Z,2.37
2018-12-12T00:21:13.998Z,1.87
2018-12-12T00:23:42.301Z,1.50
2018-12-12T00:26:10.388Z,6.63
2018-12-12T00:28:38.516Z,2.10
2018-12-12T00:31:06.588Z,2.57
2018-12-12T00:33:34.660Z,3.10
2018-12-12T00:36:02.714Z,2.40
2018-12-12T00:38:30.742Z,3.10
2018-12-12T00:40:58.864Z,1.93
2018-12-12T00:43:26.894Z,2.70
2018-12-12T00:45:54.936Z,2.17
2018-12-12T00:48:22.985Z,2.30
2018-12-12T00:50:50.991Z,1.93
2018-12-12T00:53:19.165Z,2.23
2018-12-12T00:55:47.214Z,2.53
2018-12-12T00:58:15.339Z,2.37
2018-12-12T01:00:43.457Z,3.77
2018-12-12T01:03:11.461Z,1.83
2018-12-12T01:05:39.593Z,2.50
2018-12-12T01:08:07.877Z,1.80
2018-12-12T01:10:35.928Z,1.97
2018-12-12T01:13:03.956Z,2.43
2018-12-12T01:15:32.032Z,1.70
2018-12-12T01:18:00.108Z,4.67
2018-12-12T01:20:28.161Z,2.53
2018-12-12T01:22:56.273Z,1.87
2018-12-12T01:25:24.657Z,1.77
2018-12-12T01:27:52.728Z,2.43
2018-12-12T01:30:20.798Z,2.30
2018-12-12T01:32:48.877Z,3.10
2018-12-12T01:35:17.057Z,3.63
2018-12-12T01:37:45.115Z,1.87
2018-12-12T01:40:13.288Z,3.13
2018-12-12T01:42:41.356Z,2.47
2018-12-12T01:45:09.706Z,2.60
2018-12-12T01:47:37.820Z,4.07
2018-12-12T01:50:05.912Z,3.13
2018-12-12T01:52:34.057Z,2.63
2018-12-12T01:55:02.172Z,2.37
2018-12-12T01:57:30.191Z,2.27
2018-12-12T01:59:58.376Z,2.20
2018-12-12T02:02:26.413Z,2.20
2018-12-12T02:04:54.571Z,2.53
2018-12-12T02:07:22.686Z,2.53
2018-12-12T02:09:50.702Z,2.00
2018-12-12T02:12:18.741Z,2.20
2018-12-12T02:14:46.931Z,2.53
2018-12-12T02:17:15.068Z,2.87
2018-12-12T02:19:43.151Z,2.50
2018-12-12T02:22:11.250Z,2.27
2018-12-12T02:24:39.571Z,2.77
2018-12-12T02:27:07.676Z,2.63
2018-12-12T02:29:35.702Z,2.30
2018-12-12T02:32:03.798Z,2.80
2018-12-12T02:34:31.938Z,3.10
2018-12-12T02:37:00.254Z,3.37
2018-12-12T02:39:28.341Z,2.03
2018-12-12T02:41:56.536Z,2.57
2018-12-12T02:44:24.588Z,2.90
2018-12-12T02:46:52.759Z,2.40
2018-12-12T02:49:20.784Z,3.17
2018-12-12T02:51:48.889Z,2.30
2018-12-12T02:54:16.973Z,2.63
2018-12-12T02:56:45.026Z,2.50
2018-12-12T02:59:13.413Z,3.93
2018-12-12T03:01:41.709Z,4.23
2018-12-12T03:04:09.756Z,3.60
2018-12-12T03:06:37.883Z,3.20
2018-12-12T03:09:06.838Z,3.00
2018-12-12T03:11:34.887Z,3.63
2018-12-12T03:14:03.034Z,4.97
2018-12-12T03:16:31.117Z,3.20
2018-12-12T03:18:59.160Z,5.00
2018-12-12T03:21:27.298Z,3.80
2018-12-12T03:23:55.341Z,2.73
2018-12-12T03:26:23.370Z,2.20
2018-12-12T03:28:51.581Z,2.70
2018-12-12T03:31:19.658Z,4.37
2018-12-12T03:33:47.940Z,3.07
2018-12-12T03:36:15.972Z,3.27
2018-12-12T03:38:44.004Z,3.23
2018-12-12T03:41:12.259Z,3.60
2018-12-12T03:43:40.280Z,3.93
2018-12-12T03:46:08.295Z,3.20
2018-12-12T03:48:36.669Z,4.50
2018-12-12T03:51:04.701Z,4.83
2018-12-12T03:53:32.916Z,4.03
2018-12-12T03:56:00.977Z,4.03
2018-12-12T03:58:29.052Z,3.57
2018-12-12T04:00:57.120Z,6.17
2018-12-12T04:03:25.196Z,4.60
2018-12-12T04:05:53.311Z,3.70
2018-12-12T04:08:21.503Z,3.30
2018-12-12T04:10:49.638Z,4.10
2018-12-12T04:13:17.752Z,4.97
2018-12-12T04:15:45.858Z,4.57
2018-12-12T04:18:13.928Z,6.37
2018-12-12T04:20:42.004Z,4.00
2018-12-12T04:23:10.069Z,4.13
2018-12-12T04:25:38.129Z,5.87
2018-12-12T04:28:06.202Z,5.80
2018-12-12T04:30:34.579Z,5.83
2018-12-12T04:33:02.612Z,7.83
2018-12-12T04:35:30.621Z,5.93
2018-12-12T04:37:58.877Z,6.00
2018-12-12T04:40:26.970Z,9.13
2018-12-12T04:42:55.063Z,10.40
2018-12-12T04:45:23.417Z,9.30
2018-12-12T04:47:51.591Z,10.73
2018-12-12T04:50:19.900Z,9.83
2018-12-12T04:52:48.049Z,11.20
2018-12-12T04:55:16.137Z,6.80
2018-12-12T04:57:44.893Z,8.57
2018-12-12T05:00:13.175Z,9.77
2018-12-12T05:02:41.545Z,9.97
2018-12-12T05:05:09.635Z,9.63
2018-12-12T05:07:37.708Z,11.00
2018-12-12T05:10:05.769Z,10.57
2018-12-12T05:12:33.837Z,11.70
2018-12-12T05:15:02.100Z,11.37
2018-12-12T05:17:30.147Z,13.60
2018-12-12T05:19:58.293Z,16.40
2018-12-12T05:22:26.344Z,12.73
2018-12-12T05:24:54.409Z,15.37
2018-12-12T05:27:22.577Z,11.27
2018-12-12T05:29:50.645Z,13.73
2018-12-12T05:32:18.717Z,11.63
2018-12-12T05:34:46.806Z,15.67
2018-12-12T05:37:14.837Z,12.57
2018-12-12T05:39:42.864Z,12.90
2018-12-12T05:42:10.944Z,11.80
2018-12-12T05:44:38.974Z,15.13
2018-12-12T05:47:07.044Z,17.60
2018-12-12T05:49:35.207Z,15.43
2018-12-12T05:52:03.323Z,14.10
2018-12-12T05:54:31.448Z,13.23
2018-12-12T05:56:59.621Z,13.07
2018-12-12T05:59:27.656Z,15.13
2018-12-12T06:01:55.867Z,14.07
2018-12-12T06:04:23.972Z,13.40
2018-12-12T06:06:51.993Z,12.20
2018-12-12T06:09:20.183Z,12.17
2018-12-12T06:11:48.320Z,12.07
2018-12-12T06:14:16.424Z,13.60
2018-12-12T06:16:44.496Z,12.53
2018-12-12T06:19:12.589Z,11.53
2018-12-12T06:21:40.633Z,12.33
2018-12-12T06:24:08.821Z,12.53
2018-12-12T06:26:37.500Z,14.20
2018-12-12T06:29:05.880Z,14.57
2018-12-12T06:31:34.203Z,14.50
2018-12-12T06:34:02.604Z,13.63
2018-12-12T06:36:30.937Z,13.53
2018-12-12T06:38:59.313Z,13.13
2018-12-12T06:41:27.628Z,12.83
2018-12-12T06:43:55.684Z,11.90
2018-12-12T06:46:24.397Z,8.67
2018-12-12T06:48:55.954Z,8.50
2018-12-12T06:51:24.105Z,9.90
2018-12-12T06:53:52.672Z,9.13
2018-12-12T06:56:20.901Z,9.27
2018-12-12T06:58:48.933Z,8.90
2018-12-12T07:01:16.997Z,12.10
2018-12-12T07:03:45.214Z,10.37
2018-12-12T07:06:13.393Z,7.50
2018-12-12T07:08:41.567Z,7.50
2018-12-12T07:11:09.740Z,9.07
2018-12-12T07:13:37.781Z,8.03
2018-12-12T07:16:05.886Z,7.70
2018-12-12T07:18:34.012Z,6.77
2018-12-12T07:21:02.120Z,8.43
2018-12-12T07:23:30.162Z,7.47
2018-12-12T07:25:58.470Z,8.47
2018-12-12T07:28:26.562Z,6.40
2018-12-12T07:30:54.732Z,5.90
2018-12-12T07:33:22.789Z,7.43
2018-12-12T07:35:50.861Z,6.67
2018-12-12T07:38:19.029Z,8.53
2018-12-12T07:40:50.938Z,7.00
2018-12-12T07:43:19.006Z,6.37
2018-12-12T07:45:47.121Z,7.43
2018-12-12T07:48:15.192Z,5.97
2018-12-12T07:50:44.059Z,7.17
2018-12-12T07:53:12.435Z,10.50
2018-12-12T07:55:40.606Z,13.73
2018-12-12T07:58:08.784Z,6.90
2018-12-12T08:00:36.988Z,9.37
2018-12-12T08:03:06.593Z,7.40
2018-12-12T08:05:34.790Z,7.17
2018-12-12T08:08:02.939Z,6.00
2018-12-12T08:10:31.012Z,6.33
2018-12-12T08:12:59.094Z,10.60
2018-12-12T08:15:27.265Z,6.40
2018-12-12T08:17:55.636Z,7.87
2018-12-12T08:22:49.694Z,6.77
2018-12-12T08:25:18.080Z,7.73
2018-12-12T08:27:46.152Z,7.07
2018-12-12T08:30:14.402Z,7.30
2018-12-12T08:32:42.632Z,7.30
2018-12-12T08:35:10.810Z,6.70
2018-12-12T08:37:38.885Z,7.87
2018-12-12T08:40:08.228Z,7.50
2018-12-12T08:42:36.371Z,10.83
2018-12-12T08:45:04.901Z,13.10
2018-12-12T08:47:32.974Z,8.33
2018-12-12T08:50:01.080Z,9.73
2018-12-12T08:52:29.139Z,9.53
2018-12-12T08:54:57.203Z,9.57
2018-12-12T08:57:25.404Z,9.73
2018-12-12T08:59:53.434Z,8.17
2018-12-12T09:02:21.577Z,8.10
2018-12-12T09:04:49.593Z,13.40
2018-12-12T09:07:17.616Z,8.17
2018-12-12T09:09:45.841Z,7.93
2018-12-12T09:12:14.032Z,6.30
2018-12-12T09:14:42.200Z,8.23
2018-12-12T09:17:10.464Z,7.23
2018-12-12T09:19:38.507Z,9.90
2018-12-12T09:22:06.634Z,6.80
2018-12-12T09:24:34.742Z,7.87
2018-12-12T09:27:02.849Z,6.47
2018-12-12T09:29:31.019Z,7.17
2018-12-12T09:31:59.813Z,8.47
2018-12-12T09:34:27.886Z,7.33
2018-12-12T09:36:56.042Z,6.63
2018-12-12T09:39:24.034Z,6.77
2018-12-12T09:41:52.201Z,6.93
2018-12-12T09:44:20.288Z,6.37
2018-12-12T09:46:48.407Z,6.80
2018-12-12T09:49:16.513Z,6.43
2018-12-12T09:51:44.620Z,7.97
2018-12-12T09:54:12.751Z,7.93
2018-12-12T09:56:40.788Z,5.23
2018-12-12T09:59:08.824Z,6.73
2018-12-12T10:01:36.874Z,6.30
2018-12-12T10:04:05.061Z,5.13
2018-12-12T10:06:33.215Z,5.70
2018-12-12T10:09:01.326Z,5.43
2018-12-12T10:11:29.457Z,6.50
2018-12-12T10:13:57.520Z,6.47
2018-12-12T10:16:25.644Z,7.10
2018-12-12T10:18:54.272Z,8.37
2018-12-12T10:21:22.356Z,12.53
2018-12-12T10:23:50.394Z,6.90
2018-12-12T10:26:18.914Z,11.80
2018-12-12T10:28:47.016Z,6.20
2018-12-12T10:31:15.085Z,4.17
2018-12-12T10:33:43.147Z,4.80
2018-12-12T10:36:11.294Z,6.43
2018-12-12T10:38:39.475Z,4.93
2018-12-12T10:41:07.533Z,5.43
2018-12-12T10:43:35.624Z,8.40
2018-12-12T10:46:03.648Z,7.77
2018-12-12T10:48:31.748Z,6.73
2018-12-12T10:50:59.818Z,5.30
2018-12-12T10:54:31.569Z,8.13
2018-12-12T10:56:59.629Z,8.80
2018-12-12T10:59:27.666Z,6.90
2018-12-12T11:02:01.309Z,9.27
2018-12-12T11:04:29.563Z,15.97
2018-12-12T11:06:57.577Z,10.33
2018-12-12T11:09:25.758Z,9.67
2018-12-12T11:11:53.838Z,6.30
2018-12-12T11:14:22.104Z,9.03
2018-12-12T11:16:50.146Z,8.47
2018-12-12T11:19:18.352Z,9.27
2018-12-12T11:21:46.405Z,9.83
2018-12-12T11:24:14.390Z,11.83
2018-12-12T11:26:42.440Z,13.40
2018-12-12T11:29:10.477Z,8.40
2018-12-12T11:31:38.511Z,13.47
2018-12-12T11:34:06.802Z,9.70
2018-12-12T11:36:35.046Z,8.47
2018-12-12T11:39:03.902Z,12.40
2018-12-12T11:41:32.131Z,8.27
2018-12-12T11:44:00.168Z,10.67
2018-12-12T11:46:28.858Z,9.80
2018-12-12T11:49:00.508Z,11.30
2018-12-12T11:51:28.585Z,13.30
2018-12-12T11:53:56.648Z,15.00
2018-12-12T11:56:24.858Z,10.23
2018-12-12T11:58:52.945Z,10.20
2018-12-12T12:01:21.072Z,10.77
2018-12-12T12:03:49.136Z,12.53
2018-12-12T12:06:17.204Z,9.33
2018-12-12T12:08:45.283Z,13.33
2018-12-12T12:11:13.358Z,12.40
2018-12-12T12:13:41.617Z,12.43
2018-12-12T12:16:09.662Z,10.67
2018-12-12T12:18:37.776Z,12.30
2018-12-12T12:21:06.010Z,13.13
2018-12-12T12:23:34.130Z,10.43
2018-12-12T12:26:02.193Z,11.50
2018-12-12T12:28:30.360Z,10.33
2018-12-12T12:30:58.400Z,13.33
2018-12-12T12:33:26.452Z,15.50
2018-12-12T12:35:54.689Z,11.53
2018-12-12T12:38:22.814Z,12.37
2018-12-12T12:40:51.190Z,10.20
2018-12-12T12:43:19.492Z,10.67
2018-12-12T12:45:47.786Z,15.20
2018-12-12T12:48:15.958Z,17.20
2018-12-12T12:50:44.221Z,14.67
2018-12-12T12:53:12.487Z,8.97
2018-12-12T12:55:40.580Z,10.57
2018-12-12T12:58:08.755Z,9.30
2018-12-12T13:00:36.925Z,9.47
2018-12-12T13:03:05.001Z,59.80
2018-12-12T13:05:33.038Z,7.83
2018-12-12T13:08:01.249Z,19.77
2018-12-12T13:13:20.273Z,8.53
2018-12-12T13:15:48.795Z,22.80
2018-12-12T13:18:17.027Z,9.70
2018-12-12T13:20:45.206Z,8.90
2018-12-12T13:23:13.483Z,11.43
2018-12-12T13:25:41.578Z,8.87
2018-12-12T13:28:09.626Z,14.20
2018-12-12T13:30:37.640Z,9.63
2018-12-12T13:33:05.727Z,16.30
2018-12-12T13:35:33.744Z,9.33
2018-12-12T13:38:01.844Z,13.53
2018-12-12T13:40:30.013Z,13.33
2018-12-12T13:42:58.206Z,21.20
2018-12-12T13:45:26.364Z,14.70
2018-12-12T13:47:54.499Z,14.97
2018-12-12T13:50:22.672Z,10.90
2018-12-12T13:54:59.426Z,13.67
2018-12-12T13:57:27.482Z,10.07
2018-12-12T13:59:55.586Z,14.13
2018-12-12T14:02:23.637Z,10.83
2018-12-12T14:04:51.884Z,10.13
2018-12-12T14:07:20.062Z,14.97
2018-12-12T14:09:49.168Z,11.00
2018-12-12T14:12:17.665Z,13.10
2018-12-12T14:14:46.021Z,15.20
2018-12-12T14:17:14.192Z,12.87
2018-12-12T14:19:42.253Z,13.87
2018-12-12T14:22:10.402Z,18.33
2018-12-12T14:24:38.497Z,13.50
2018-12-12T14:27:06.568Z,11.30
2018-12-12T14:29:34.639Z,20.53
2018-12-12T14:32:02.719Z,11.80
2018-12-12T14:34:30.980Z,14.07
2018-12-12T14:36:59.088Z,18.20
2018-12-12T14:39:27.100Z,13.90
2018-12-12T14:41:55.509Z,17.47
2018-12-12T14:44:23.589Z,11.30
2018-12-12T14:46:51.655Z,11.30
2018-12-12T14:49:19.721Z,10.70
2018-12-12T14:51:47.787Z,11.53
2018-12-12T14:54:15.875Z,16.77
2018-12-12T14:56:43.933Z,19.40
2018-12-12T14:59:12.105Z,11.70
2018-12-12T15:01:40.300Z,15.43
2018-12-12T15:04:08.352Z,13.87
2018-12-12T15:06:36.409Z,14.03
2018-12-12T15:09:07.006Z,11.00
2018-12-12T15:11:35.084Z,22.80
2018-12-12T15:14:03.365Z,23.57
2018-12-12T15:16:31.388Z,18.33
2018-12-12T15:18:59.413Z,22.13
2018-12-12T15:21:27.460Z,16.20
2018-12-12T15:23:55.584Z,15.80
2018-12-12T15:26:23.752Z,19.80
2018-12-12T15:28:51.864Z,18.53
2018-12-12T15:31:20.020Z,15.97
2018-12-12T15:33:48.041Z,14.10
2018-12-12T15:36:16.126Z,23.53
2018-12-12T15:38:44.164Z,18.10
2018-12-12T15:41:12.385Z,15.87
2018-12-12T15:43:40.427Z,13.00
2018-12-12T15:46:08.526Z,17.90
2018-12-12T15:48:36.796Z,18.70
2018-12-12T15:51:04.874Z,19.93
2018-12-12T15:53:32.953Z,17.27
2018-12-12T15:56:01.216Z,24.47
2018-12-12T15:58:29.270Z,19.47
2018-12-12T16:00:57.332Z,12.60
2018-12-12T16:03:25.557Z,19.17
2018-12-12T16:05:53.604Z,60.40
2018-12-12T16:08:21.634Z,30.53
2018-12-12T16:10:49.789Z,31.17
2018-12-12T16:13:17.811Z,24.63
2018-12-12T16:15:45.884Z,18.20
2018-12-12T16:18:14.125Z,24.67
2018-12-12T16:20:42.234Z,23.93
2018-12-12T16:23:10.309Z,16.10
2018-12-12T16:25:38.380Z,15.00
2018-12-12T16:28:06.531Z,25.50
2018-12-12T16:30:34.570Z,16.73
2018-12-12T16:33:02.717Z,14.87
2018-12-12T16:35:30.740Z,18.33
2018-12-12T16:37:58.832Z,18.00
2018-12-12T16:40:27.089Z,21.13
2018-12-12T16:42:55.179Z,19.90
2018-12-12T16:45:23.217Z,17.13
2018-12-12T16:47:51.333Z,18.33
2018-12-12T16:50:19.400Z,19.47
2018-12-12T16:52:47.446Z,17.03
2018-12-12T16:55:15.535Z,15.03
2018-12-12T16:57:43.708Z,15.63
2018-12-12T17:00:11.796Z,19.87
2018-12-12T17:02:39.988Z,25.00
2018-12-12T17:05:08.135Z,17.40
2018-12-12T17:07:36.306Z,23.07
2018-12-12T17:10:05.418Z,16.60
2018-12-12T17:12:33.540Z,20.67
2018-12-12T17:15:01.631Z,20.93
2018-12-12T17:17:29.722Z,18.47
2018-12-12T17:19:57.804Z,13.83
2018-12-12T17:22:25.972Z,19.10
2018-12-12T17:24:54.158Z,17.77
2018-12-12T17:27:22.261Z,22.13
2018-12-12T17:29:50.367Z,17.77
2018-12-12T17:32:18.410Z,14.97
2018-12-12T17:34:46.583Z,15.37
2018-12-12T17:37:14.619Z,19.03
2018-12-12T17:39:42.650Z,16.17
2018-12-12T17:42:10.740Z,17.77
2018-12-12T17:44:38.776Z,17.57
2018-12-12T17:47:06.880Z,19.03
2018-12-12T17:49:35.034Z,14.97
2018-12-12T17:52:03.061Z,16.57
2018-12-12T17:54:31.192Z,17.10
2018-12-12T17:56:59.300Z,16.67
2018-12-12T17:59:27.328Z,19.30
2018-12-12T18:01:55.587Z,17.17
2018-12-12T18:04:23.769Z,15.97
2018-12-12T18:06:51.797Z,17.73
2018-12-12T18:09:19.922Z,18.47
2018-12-12T18:11:48.083Z,18.70
2018-12-12T18:14:16.153Z,14.43
2018-12-12T18:16:44.226Z,17.97
2018-12-12T18:19:12.500Z,17.80
2018-12-12T18:21:40.601Z,19.13
2018-12-12T18:24:08.640Z,15.27
2018-12-12T18:26:36.712Z,18.87
2018-12-12T18:29:04.807Z,15.23
2018-12-12T18:31:33.070Z,16.20
2018-12-12T18:34:01.136Z,17.87
2018-12-12T18:36:29.163Z,16.87
2018-12-12T18:38:57.377Z,13.77
2018-12-12T18:41:25.454Z,17.40
2018-12-12T18:43:53.494Z,13.93
2018-12-12T18:46:21.691Z,17.57
2018-12-12T18:48:49.871Z,13.90
2018-12-12T18:51:17.935Z,16.53
2018-12-12T18:53:46.118Z,14.33
2018-12-12T18:56:14.179Z,13.90
2018-12-12T18:58:42.262Z,14.00
2018-12-12T19:01:10.446Z,13.90
2018-12-12T19:03:38.456Z,12.60
2018-12-12T19:06:07.236Z,13.70
2018-12-12T19:08:35.393Z,12.93
2018-12-12T19:11:03.461Z,13.07
2018-12-12T19:13:31.542Z,14.83
2018-12-12T19:15:59.561Z,13.53
2018-12-12T19:18:27.717Z,16.80
2018-12-12T19:21:00.054Z,15.50
2018-12-12T19:23:26.106Z,16.73
2018-12-12T19:25:54.341Z,16.63
2018-12-12T19:28:22.395Z,14.63
2018-12-12T19:30:50.602Z,24.03
2018-12-12T19:33:18.699Z,16.57
2018-12-12T19:35:46.736Z,14.70
2018-12-12T19:38:14.912Z,16.80
2018-12-12T19:40:43.054Z,17.13
2018-12-12T19:43:11.107Z,15.70
2018-12-12T19:45:39.189Z,16.63
2018-12-12T19:48:07.302Z,16.40
2018-12-12T19:50:35.382Z,16.37
2018-12-12T19:53:03.417Z,13.87
2018-12-12T19:55:31.520Z,20.47
2018-12-12T19:57:59.604Z,19.40
2018-12-12T20:00:27.737Z,21.27
2018-12-12T20:02:55.859Z,14.10
2018-12-12T20:05:23.952Z,14.17
2018-12-12T20:07:52.021Z,14.00
2018-12-12T20:10:20.265Z,15.43
2018-12-12T20:12:48.436Z,17.70
2018-12-12T20:15:21.974Z,17.63
2018-12-12T20:17:50.256Z,18.23
2018-12-12T20:20:24.297Z,15.63
2018-12-12T20:22:52.675Z,16.10
2018-12-12T20:25:20.745Z,14.47
2018-12-12T20:27:48.801Z,14.77
2018-12-12T20:30:16.892Z,16.07
2018-12-12T20:32:44.944Z,12.80
2018-12-12T20:35:13.193Z,16.17
2018-12-12T20:37:41.351Z,25.57
2018-12-12T20:40:09.460Z,19.57
2018-12-12T20:42:37.517Z,21.13
2018-12-12T20:45:06.080Z,18.27
2018-12-12T20:47:34.231Z,18.53
2018-12-12T20:50:02.252Z,14.60
2018-12-12T20:52:30.611Z,15.20
2018-12-12T20:54:58.685Z,16.37
2018-12-12T20:57:26.764Z,18.43
2018-12-12T20:59:58.171Z,18.60
2018-12-12T21:02:26.282Z,19.40
2018-12-12T21:04:54.370Z,15.87
2018-12-12T21:07:22.428Z,15.30
2018-12-12T21:09:50.496Z,17.00
2018-12-12T21:12:18.673Z,17.33
2018-12-12T21:14:46.733Z,14.90
2018-12-12T21:17:14.867Z,20.37
2018-12-12T21:19:42.975Z,16.00
2018-12-12T21:22:21.356Z,15.77
2018-12-12T21:24:49.720Z,15.97
2018-12-12T21:27:18.065Z,15.20
2018-12-12T21:29:46.412Z,18.43
2018-12-12T21:32:14.776Z,17.80
2018-12-12T21:34:43.149Z,15.23
2018-12-12T21:37:11.897Z,17.23
2018-12-12T21:39:40.266Z,17.87
2018-12-12T21:42:08.617Z,17.77
2018-12-12T21:44:36.985Z,18.67
2018-12-12T21:47:05.820Z,18.30
2018-12-12T21:49:34.158Z,18.20
2018-12-12T21:52:03.441Z,17.03
2018-12-12T21:54:31.954Z,23.83
2018-12-12T21:57:00.489Z,16.67
2018-12-12T21:59:28.862Z,16.13
2018-12-12T22:01:57.282Z,17.17
2018-12-12T22:04:25.766Z,18.57
2018-12-12T22:06:54.140Z,18.93
2018-12-12T22:09:22.518Z,17.70
2018-12-12T22:11:50.897Z,17.40
2018-12-12T22:14:19.296Z,16.83
2018-12-12T22:16:48.198Z,17.53
2018-12-12T22:19:16.567Z,13.73
2018-12-12T22:21:45.190Z,17.03
2018-12-12T22:24:15.096Z,18.30
2018-12-12T22:26:44.155Z,16.73
2018-12-12T22:29:12.581Z,13.87
2018-12-12T22:31:40.946Z,15.03
2018-12-12T22:34:09.301Z,13.97
2018-12-12T22:36:37.782Z,17.00
2018-12-12T22:39:07.905Z,16.60
2018-12-12T22:41:36.247Z,15.33
2018-12-12T22:44:04.748Z,13.97
2018-12-12T22:46:33.096Z,14.40
2018-12-12T22:49:01.429Z,15.83
2018-12-12T22:51:30.102Z,14.33
2018-12-12T22:53:58.432Z,14.87
2018-12-12T22:56:26.892Z,14.57
2018-12-12T22:58:55.420Z,13.60
2018-12-12T23:01:23.944Z,16.87
2018-12-12T23:03:53.166Z,15.27
2018-12-12T23:06:21.541Z,13.97
2018-12-12T23:08:49.894Z,15.53
2018-12-12T23:11:18.237Z,16.23
2018-12-12T23:13:46.606Z,13.13
2018-12-12T23:16:14.940Z,12.80
2018-12-12T23:18:43.293Z,16.27
2018-12-12T23:21:11.683Z,14.13
2018-12-12T23:23:40.028Z,12.93
2018-12-12T23:26:08.452Z,13.53
2018-12-12T23:28:36.868Z,12.00
2018-12-12T23:31:05.218Z,13.43
2018-12-12T23:33:33.856Z,15.20
2018-12-12T23:36:02.208Z,13.80
2018-12-12T23:38:30.592Z,11.93
2018-12-12T23:40:58.993Z,13.07
2018-12-12T23:43:27.354Z,13.37
2018-12-12T23:45:55.734Z,12.27
2018-12-12T23:48:24.092Z,12.20
2018-12-12T23:50:52.552Z,15.47
2018-12-12T23:53:20.932Z,15.20
2018-12-12T23:55:49.352Z,12.73
2018-12-12T23:58:17.758Z,11.73
